CYBW

Calgary / Springbank Airport

Calgary, Alberta, Canada
METAR CYBW 150000Z AUTO 17007KT 9SM CLR 28/07 A2989 RMK SLP118 DENSITY ALT 6200FT
Observed Flight Rules
Aug-15 @ 00:00 UTC (an hour ago) Visual Flight Rules
Wind Visibility Clouds
170° at 7 knots 9 miles
  • Clear skies
Temperatures Readings
Current 28°C / 82°F
Dewpoint 7°C / 45°F
Humidity 26%
Altimeter 29.89" Hg
Pressure 1011.8 hPa
Elevation 1200
METAR CYBW 150000Z AUTO 17007KT 9SM CLR 28/07 A2989 RMK SLP118 DENSITY ALT 6200FT
Observed Flight Rules
Aug-15 @ 00:00 UTC
(an hour ago)
VFR
Wind Visibility
170° at 7 knots 9 miles
Clouds
  • Clear skies
Temperature Dewpoint
28°C / 82°F 7°C / 45°F
Humidity Altimeter Pressure
26% 29.89" Hg 1011.8 hPa